Terminal Aerodrome Forecast
Issued by NWS

Home | Current Version | Previous Version | Text Only | Print | Product List | Glossary On
Versions: 1 2 3 4 5 6 7 8 9 10 11 12 13 14 15 16 17 18 19 20 21 22
000
FTPA31 PHFO 222300
TAFOGG
TAF
PHOG 222339Z 2300/2324 05010KT P6SM VCSH SCT015 BKN050
      TEMPO 2300/2303 5SM SHRA BR SCT012 BKN030
     FM230500 06008KT P6SM VCSH SCT040
     FM230800 15005KT P6SM SCT035
     FM232000 04016KT P6SM FEW035 SCT050
      AMD LTD TO WX VIS AND WIND 2309/2316=

USA.gov is the U.S. government's official web portal to all federal, state and local government web resources and services.